Time;durP1;ratioP1;P1;durP2;ratioP2;P2;SDS_P1;SDS_P2;PMS_P1;PMS_P2;Temp;Humidity;BMP_temperature;BMP_pressure;BME280_temperature;BME280_humidity;BME280_pressure;Samples;Min_cycle;Max_cycle;Signal;HPM_P1;HPM_P2
2022/09/23 00:00:35;;;;;;;0.65;0.45;;;;;;;10.55;100.00;99486.32;1711152;82;21046;-47
2022/09/23 00:03:03;;;;;;;0.40;0.40;;;;;;;10.52;100.00;99485.16;1711920;82;21357;-48
2022/09/23 00:05:30;;;;;;;0.50;0.40;;;;;;;10.51;100.00;99482.06;1712555;82;21561;-48
2022/09/23 00:07:56;;;;;;;0.80;0.40;;;;;;;10.51;100.00;99483.41;1714445;82;21019;-48
2022/09/23 00:10:24;;;;;;;0.70;0.50;;;;;;;10.51;100.00;99478.03;1710101;82;21758;-51
2022/09/23 00:12:51;;;;;;;0.72;0.50;;;;;;;10.51;100.00;99480.72;1711425;82;20983;-50
2022/09/23 00:15:18;;;;;;;0.80;0.60;;;;;;;10.50;100.00;99476.76;1714245;82;20984;-50
2022/09/23 00:17:44;;;;;;;0.40;0.40;;;;;;;10.51;100.00;99478.50;1711883;82;21324;-49
2022/09/23 00:20:10;;;;;;;0.40;0.40;;;;;;;10.51;100.00;99476.69;1713985;82;21011;-48
2022/09/23 00:22:37;;;;;;;0.93;0.42;;;;;;;10.49;100.00;99476.36;1711076;82;21793;-48
2022/09/23 00:25:05;;;;;;;1.07;0.50;;;;;;;10.49;100.00;99481.27;1706234;82;21173;-48
2022/09/23 00:27:32;;;;;;;0.90;0.50;;;;;;;10.47;100.00;99476.44;1711533;81;21043;-48
2022/09/23 00:30:00;;;;;;;0.60;0.60;;;;;;;10.50;100.00;99476.76;1707471;82;21089;-49
2022/09/23 00:32:26;;;;;;;0.70;0.40;;;;;;;10.53;100.00;99464.03;1708822;82;21010;-47
2022/09/23 00:34:52;;;;;;;0.80;0.47;;;;;;;10.56;100.00;99465.66;1708429;82;21746;-49
2022/09/23 00:37:19;;;;;;;0.78;0.50;;;;;;;10.58;100.00;99460.61;1714308;82;20983;-50
2022/09/23 00:39:46;;;;;;;3.70;0.50;;;;;;;10.59;100.00;99457.44;1707776;82;21109;-48
2022/09/23 00:42:15;;;;;;;0.60;0.50;;;;;;;10.59;100.00;99458.78;1708272;82;21011;-51
2022/09/23 00:44:55;;;;;;;1.77;0.60;;;;;;;10.60;100.00;99460.05;1709742;82;21003;-48
2022/09/23 00:47:40;;;;;;;2.15;0.55;;;;;;;10.62;100.00;99457.28;1709217;82;21898;-50
2022/09/23 00:50:30;;;;;;;0.60;0.60;;;;;;;10.61;100.00;99452.37;1704343;82;21549;-48
2022/09/23 00:52:58;;;;;;;1.37;0.82;;;;;;;10.58;100.00;99452.53;1708604;81;21513;-50
2022/09/23 00:55:29;;;;;;;0.70;0.60;;;;;;;10.55;100.00;99452.68;1711152;82;21478;-48
2022/09/23 00:57:57;;;;;;;2.25;0.70;;;;;;;10.52;100.00;99451.98;1705434;82;21085;-48
2022/09/23 01:00:23;;;;;;;2.50;0.60;;;;;;;10.49;100.00;99449.45;1703448;82;21383;-47
2022/09/23 01:02:50;;;;;;;3.10;0.90;;;;;;;10.49;100.00;99448.10;1702430;81;21054;-49
2022/09/23 01:05:17;;;;;;;1.40;0.70;;;;;;;10.48;100.00;99447.23;1708107;81;21090;-49
2022/09/23 01:07:45;;;;;;;0.60;0.55;;;;;;;10.48;100.00;99447.23;1706133;82;21138;-48
2022/09/23 01:10:12;;;;;;;1.05;0.60;;;;;;;10.48;100.00;99440.50;1710083;82;22027;-47
2022/09/23 01:13:08;;;;;;;0.80;0.80;;;;;;;10.48;100.00;99449.05;1709556;82;21968;-47
2022/09/23 01:15:43;;;;;;;2.33;0.80;;;;;;;10.48;100.00;99448.58;1702622;82;21058;-46
2022/09/23 01:18:42;;;;;;;0.70;0.70;;;;;;;10.50;100.00;99455.23;1706336;82;21143;-49
2022/09/23 01:21:23;;;;;;;3.20;0.78;;;;;;;10.48;100.00;99456.65;1708387;82;21219;-47
2022/09/23 01:24:21;;;;;;;3.05;0.75;;;;;;;10.48;100.00;99450.39;1709730;82;21128;-47
2022/09/23 01:27:15;;;;;;;2.45;0.90;;;;;;;10.49;100.00;99444.06;1704994;82;22596;-49
2022/09/23 01:30:16;;;;;;;1.37;0.90;;;;;;;10.50;100.00;99447.16;1666696;84;21432;-49
2022/09/23 01:32:57;;;;;;;0.90;0.70;;;;;;;10.50;100.00;99453.41;1710187;82;21054;-49
2022/09/23 01:35:50;;;;;;;0.82;0.72;;;;;;;10.50;100.00;99452.06;1708581;82;21050;-47
2022/09/23 01:38:25;;;;;;;0.78;0.78;;;;;;;10.49;100.00;99453.02;1711593;82;21109;-47
2022/09/23 01:41:18;;;;;;;1.05;0.90;;;;;;;10.52;100.00;99449.30;1708314;82;21981;-47
2022/09/23 01:43:59;;;;;;;1.12;0.90;;;;;;;10.53;100.00;99451.05;1707061;82;21580;-47
2022/09/23 01:46:31;;;;;;;1.70;1.10;;;;;;;10.53;100.00;99451.92;1703962;82;21105;-47
2022/09/23 01:49:08;;;;;;;1.30;1.00;;;;;;;10.51;100.00;99450.25;1710478;82;21058;-46
2022/09/23 01:51:40;;;;;;;1.40;0.80;;;;;;;10.50;100.00;99449.84;1714642;82;21302;-50
2022/09/23 01:54:21;;;;;;;1.65;1.00;;;;;;;10.49;100.00;99445.41;1709874;82;22042;-47
2022/09/23 01:56:58;;;;;;;1.00;0.95;;;;;;;10.49;100.00;99448.10;1708843;82;21065;-46
2022/09/23 01:59:37;;;;;;;2.15;1.00;;;;;;;10.49;100.00;99443.59;1709146;81;22202;-47
2022/09/23 02:02:18;;;;;;;2.77;1.00;;;;;;;10.51;100.00;99445.73;1708841;82;21074;-47
2022/09/23 02:04:53;;;;;;;1.02;0.80;;;;;;;10.52;100.00;99441.23;1705271;82;21105;-47
2022/09/23 02:07:36;;;;;;;2.20;0.90;;;;;;;10.51;100.00;99433.62;1709720;81;21770;-48
2022/09/23 02:10:21;;;;;;;1.65;0.90;;;;;;;10.50;100.00;99435.05;1709936;82;21136;-47
2022/09/23 02:12:48;;;;;;;0.90;0.80;;;;;;;10.51;100.00;99439.01;1707506;82;21085;-47
2022/09/23 02:15:18;;;;;;;0.85;0.85;;;;;;;10.53;100.00;99432.20;1707339;82;21328;-47
2022/09/23 02:18:00;;;;;;;0.88;0.80;;;;;;;10.50;100.00;99431.88;1712417;82;22531;-47
2022/09/23 02:20:35;;;;;;;1.10;1.00;;;;;;;10.48;100.00;99431.09;1706084;82;21750;-47
2022/09/23 02:23:15;;;;;;;1.45;0.90;;;;;;;10.50;100.00;99433.70;1705660;82;21539;-48
2022/09/23 02:25:59;;;;;;;2.08;0.95;;;;;;;10.50;100.00;99431.88;1710765;81;21086;-49
2022/09/23 02:28:53;;;;;;;1.00;0.90;;;;;;;10.52;100.00;99430.46;1713587;81;21457;-50
2022/09/23 02:35:05;;;;;;;1.17;0.90;;;;;;;10.52;100.00;99425.95;1792640;78;22495;-49
2022/09/23 02:37:42;;;;;;;4.62;1.40;;;;;;;10.52;100.00;99431.34;1766283;79;27992;-47
2022/09/23 02:40:22;;;;;;;1.10;1.00;;;;;;;10.53;100.00;99433.55;1771640;79;22331;-47
2022/09/23 02:43:31;;;;;;;1.20;0.95;;;;;;;10.54;100.00;99432.61;1769066;79;21029;-48
2022/09/23 02:45:54;;;;;;;;;;;;;;;10.53;100.00;99430.86;1771950;79;21036;-49
2022/09/23 02:48:25;;;;;;;1.00;0.90;;;;;;;10.50;100.00;99435.92;1768719;79;20240;-49
2022/09/23 02:50:53;;;;;;;0.85;0.80;;;;;;;10.47;100.00;99434.72;1760688;79;21060;-50
2022/09/23 02:53:21;;;;;;;1.30;1.00;;;;;;;10.44;100.00;99428.18;1766840;79;22515;-49
2022/09/23 02:55:48;;;;;;;2.02;0.90;;;;;;;10.44;100.00;99428.18;1740793;80;21543;-50
2022/09/23 02:58:14;;;;;;;1.25;0.80;;;;;;;10.44;100.00;99430.88;1770068;79;21409;-48
2022/09/23 03:01:04;;;;;;;0.98;0.90;;;;;;;10.44;100.00;99429.52;1768279;79;21525;-47
2022/09/23 03:03:45;;;;;;;1.57;1.00;;;;;;;10.46;100.00;99430.28;1710423;81;22384;-47
2022/09/23 03:06:29;;;;;;;0.90;0.70;;;;;;;10.44;100.00;99426.84;1707544;82;22812;-48
2022/09/23 03:09:01;;;;;;;0.80;0.80;;;;;;;10.48;100.00;99428.87;1718466;82;20989;-48
2022/09/23 03:11:27;;;;;;;2.08;0.80;;;;;;;10.49;100.00;99426.58;1734641;81;20970;-48
2022/09/23 03:14:20;;;;;;;1.27;0.90;;;;;;;10.50;100.00;99429.67;1735442;81;21022;-51
2022/09/23 03:17:03;;;;;;;0.90;0.90;;;;;;;10.49;100.00;99427.92;1741231;81;21050;-51
2022/09/23 03:19:44;;;;;;;1.17;1.00;;;;;;;10.48;100.00;99432.44;1708131;81;21550;-49
2022/09/23 03:22:18;;;;;;;1.72;0.90;;;;;;;10.47;100.00;99432.03;1695742;82;20982;-50
2022/09/23 03:24:44;;;;;;;2.98;0.80;;;;;;;10.46;100.00;99431.63;1712036;81;21469;-50
2022/09/23 03:27:16;;;;;;;1.20;0.85;;;;;;;10.48;100.00;99432.91;1715107;81;21041;-50
2022/09/23 03:29:49;;;;;;;1.12;0.80;;;;;;;10.47;100.00;99434.72;1718499;81;20990;-51
2022/09/23 03:32:18;;;;;;;0.70;0.70;;;;;;;10.46;100.00;99430.28;1717389;81;21723;-49
2022/09/23 03:34:48;;;;;;;2.25;0.70;;;;;;;10.48;100.00;99427.05;1679221;81;21072;-48
2022/09/23 03:37:25;;;;;;;2.33;0.70;;;;;;;10.49;100.00;99433.30;1737570;80;20975;-49
2022/09/23 03:39:56;;;;;;;0.85;0.80;;;;;;;10.47;100.00;99428.00;1735265;80;21022;-49
2022/09/23 03:42:30;;;;;;;1.70;0.70;;;;;;;10.46;100.00;99430.80;1739130;80;20994;-50
2022/09/23 03:44:56;;;;;;;0.95;0.80;;;;;;;10.46;100.00;99430.80;1732386;80;21855;-49
2022/09/23 03:47:25;;;;;;;1.35;0.90;;;;;;;10.45;100.00;99432.61;1734224;80;22002;-51
2022/09/23 03:49:52;;;;;;;3.08;1.12;;;;;;;10.45;100.00;99432.61;1738567;80;21084;-49
2022/09/23 03:52:22;;;;;;;3.52;0.60;;;;;;;10.46;100.00;99440.21;1734005;80;21112;-50
2022/09/23 03:54:51;;;;;;;0.78;0.72;;;;;;;10.47;100.00;99433.38;1728445;80;21539;-50
2022/09/23 03:57:20;;;;;;;0.90;0.80;;;;;;;10.47;100.00;99433.38;1729853;80;21852;-49
2022/09/23 03:59:49;;;;;;;2.65;0.90;;;;;;;10.47;100.00;99427.13;1734703;80;21587;-50
2022/09/23 04:02:16;;;;;;;0.90;0.80;;;;;;;10.49;100.00;99433.30;1741342;80;21085;-48
2022/09/23 04:04:43;;;;;;;0.65;0.65;;;;;;;10.50;100.00;99430.53;1733979;80;21050;-49
2022/09/23 04:07:10;;;;;;;1.17;0.75;;;;;;;10.50;100.00;99430.53;1733596;80;21502;-51
2022/09/23 04:09:37;;;;;;;0.80;0.78;;;;;;;10.49;100.00;99437.34;1726188;81;21535;-51
2022/09/23 04:12:04;;;;;;;0.70;0.70;;;;;;;10.48;100.00;99437.81;1731486;80;21512;-50
2022/09/23 04:14:31;;;;;;;1.65;0.60;;;;;;;10.48;100.00;99436.94;1730991;80;21076;-49
2022/09/23 04:16:57;;;;;;;0.75;0.60;;;;;;;10.49;100.00;99437.34;1733281;80;21042;-50
2022/09/23 04:19:24;;;;;;;2.10;0.75;;;;;;;10.49;100.00;99434.17;1736681;81;21068;-50
2022/09/23 04:21:51;;;;;;;0.80;0.80;;;;;;;10.50;100.00;99435.05;1731218;81;21747;-50
2022/09/23 04:24:17;;;;;;;0.80;0.80;;;;;;;10.51;100.00;99438.14;1734389;80;21048;-49
2022/09/23 04:26:45;;;;;;;1.20;0.93;;;;;;;10.52;100.00;99430.46;1734047;80;21094;-51
2022/09/23 04:29:12;;;;;;;1.10;0.98;;;;;;;10.52;100.00;99430.46;1702902;81;21089;-48
2022/09/23 04:31:38;;;;;;;0.90;0.90;;;;;;;10.49;100.00;99428.80;1734192;80;21053;-49
2022/09/23 04:34:05;;;;;;;1.20;0.90;;;;;;;10.47;100.00;99433.85;1731146;80;21910;-47
2022/09/23 04:36:32;;;;;;;0.70;0.70;;;;;;;10.47;100.00;99436.55;1747816;80;21058;-47
2022/09/23 04:38:58;;;;;;;1.17;0.90;;;;;;;10.47;100.00;99432.03;1746336;80;21073;-47
2022/09/23 04:41:25;;;;;;;2.77;0.80;;;;;;;10.49;100.00;99434.65;1744781;80;21497;-49
2022/09/23 04:43:51;;;;;;;2.40;0.90;;;;;;;10.52;100.00;99431.34;1740727;80;21649;-46
2022/09/23 04:46:18;;;;;;;0.90;0.70;;;;;;;10.52;100.00;99431.34;1741804;80;21898;-46
2022/09/23 04:48:44;;;;;;;0.90;0.90;;;;;;;10.57;100.00;99438.67;1742448;80;21084;-48
2022/09/23 04:51:14;;;;;;;2.90;1.00;;;;;;;10.60;100.00;99437.66;1741236;80;21079;-47
2022/09/23 04:53:42;;;;;;;3.22;0.80;;;;;;;10.63;100.00;99438.84;1741919;80;21082;-49
2022/09/23 04:56:26;;;;;;;1.57;1.15;;;;;;;10.63;100.00;99436.63;1738969;80;21495;-47
2022/09/23 04:58:53;;;;;;;1.30;1.00;;;;;;;10.65;100.00;99438.73;1739545;80;21528;-46
2022/09/23 05:01:25;;;;;;;2.25;0.98;;;;;;;10.68;100.00;99434.55;1736431;80;21070;-47
2022/09/23 05:03:56;;;;;;;2.02;1.05;;;;;;;10.70;100.00;99441.59;1738734;80;21069;-48
2022/09/23 05:06:23;;;;;;;2.15;1.12;;;;;;;10.71;100.00;99442.00;1735719;80;21053;-47
2022/09/23 05:08:54;;;;;;;1.30;0.78;;;;;;;10.73;100.00;99440.54;1739909;80;21019;-47
2022/09/23 05:11:22;;;;;;;4.62;1.00;;;;;;;10.72;100.00;99438.83;1741415;80;22279;-48
2022/09/23 05:13:51;;;;;;;1.27;0.80;;;;;;;10.75;100.00;99444.03;1736041;80;21539;-47
2022/09/23 05:16:18;;;;;;;1.40;0.85;;;;;;;10.76;100.00;99448.46;1739293;80;21078;-48
2022/09/23 05:18:45;;;;;;;0.90;0.80;;;;;;;10.76;100.00;99444.42;1743575;80;21030;-47
2022/09/23 05:21:14;;;;;;;2.17;0.70;;;;;;;10.77;100.00;99447.04;1701645;83;21045;-49
2022/09/23 05:23:41;;;;;;;3.45;0.68;;;;;;;10.78;100.00;99436.67;1672995;83;21925;-47
2022/09/23 05:26:10;;;;;;;2.75;0.70;;;;;;;10.76;100.00;99443.08;1686864;82;21156;-50
2022/09/23 05:28:38;;;;;;;1.37;0.70;;;;;;;10.79;100.00;99445.62;1689736;82;21113;-50
2022/09/23 05:31:15;;;;;;;2.37;0.72;;;;;;;10.80;100.00;99447.36;1690288;82;21053;-49
2022/09/23 05:33:45;;;;;;;0.90;0.80;;;;;;;10.80;100.00;99447.36;1688491;82;21064;-49
2022/09/23 05:36:12;;;;;;;0.70;0.70;;;;;;;10.82;100.00;99438.70;1698430;82;21874;-50
2022/09/23 05:38:39;;;;;;;0.80;0.60;;;;;;;10.81;100.00;99443.69;1759007;80;21037;-50
2022/09/23 05:41:07;;;;;;;2.55;0.70;;;;;;;10.81;100.00;99444.56;1718991;81;21113;-48
2022/09/23 05:43:35;;;;;;;0.70;0.70;;;;;;;10.78;100.00;99436.67;1692007;82;21115;-47
2022/09/23 05:46:11;;;;;;;0.60;0.57;;;;;;;10.78;100.00;99436.67;1759042;80;21068;-48
2022/09/23 05:48:38;;;;;;;0.98;0.60;;;;;;;10.80;100.00;99447.36;1759418;80;22320;-48
2022/09/23 05:51:11;;;;;;;0.62;0.60;;;;;;;10.80;100.00;99441.47;1754015;80;22374;-50
2022/09/23 05:53:38;;;;;;;0.60;0.50;;;;;;;10.83;100.00;99441.31;1719533;81;21159;-51
2022/09/23 05:56:05;;;;;;;0.57;0.57;;;;;;;10.86;100.00;99441.64;1694539;82;21070;-48
2022/09/23 05:58:32;;;;;;;0.60;0.60;;;;;;;10.88;100.00;99442.43;1757421;80;21516;-50
2022/09/23 06:00:59;;;;;;;0.60;0.50;;;;;;;10.89;100.00;99445.02;1751789;80;21911;-50
2022/09/23 06:03:25;;;;;;;0.40;0.40;;;;;;;10.95;100.00;99440.66;1759699;80;21084;-48
2022/09/23 06:05:53;;;;;;;1.20;0.65;;;;;;;10.95;100.00;99440.66;1761119;80;21473;-49
2022/09/23 06:08:20;;;;;;;1.47;0.60;;;;;;;10.95;100.00;99442.48;1756212;80;21578;-50
2022/09/23 06:10:47;;;;;;;0.70;0.68;;;;;;;10.98;100.00;99446.33;1756464;80;21532;-49
2022/09/23 06:13:15;;;;;;;0.60;0.50;;;;;;;10.99;100.00;99444.04;1760777;80;21352;-48
2022/09/23 06:15:43;;;;;;;2.95;0.62;;;;;;;10.98;100.00;99450.38;1757524;79;21418;-48
2022/09/23 06:18:10;;;;;;;0.50;0.50;;;;;;;10.98;100.00;99450.38;1760237;80;21085;-49
2022/09/23 06:20:39;;;;;;;2.35;0.60;;;;;;;10.95;100.00;99446.52;1758994;80;21711;-49
2022/09/23 06:23:08;;;;;;;0.60;0.60;;;;;;;10.98;100.00;99452.59;1760279;80;21050;-50
2022/09/23 06:25:37;;;;;;;0.50;0.50;;;;;;;11.00;100.00;99449.82;1751928;79;21545;-49
2022/09/23 06:28:09;;;;;;;0.50;0.42;;;;;;;11.04;100.00;99455.92;1754135;80;20982;-49
2022/09/23 06:30:33;;;;;;;1.50;0.70;;;;;;;11.08;100.00;99448.92;1758680;80;21010;-49
2022/09/23 06:33:00;;;;;;;1.85;0.50;;;;;;;11.14;100.00;99454.47;1755501;80;20975;-49
2022/09/23 06:35:27;;;;;;;0.82;0.50;;;;;;;11.19;100.00;99450.56;1758682;80;21003;-50
2022/09/23 06:37:54;;;;;;;0.90;0.50;;;;;;;11.27;100.00;99455.04;1756783;80;21860;-49
2022/09/23 06:40:22;;;;;;;0.98;0.50;;;;;;;11.32;100.00;99448.91;1755547;80;21069;-49
2022/09/23 06:42:57;;;;;;;0.50;0.50;;;;;;;11.36;100.00;99454.53;1753694;80;21090;-49
2022/09/23 06:45:23;;;;;;;1.05;0.50;;;;;;;11.41;100.00;99458.77;1679862;82;21152;-51
2022/09/23 06:47:55;;;;;;;0.50;0.50;;;;;;;11.50;100.00;99450.17;1752124;80;21034;-49
2022/09/23 06:50:25;;;;;;;1.67;0.50;;;;;;;11.57;100.00;99458.33;1752141;79;21834;-49
2022/09/23 06:52:55;;;;;;;0.60;0.60;;;;;;;11.65;100.00;99453.37;1756688;80;21546;-48
2022/09/23 06:55:23;;;;;;;0.60;0.60;;;;;;;11.70;100.00;99452.13;1756125;80;21622;-51
2022/09/23 06:57:50;;;;;;;3.02;0.60;;;;;;;11.75;100.00;99451.89;1697804;82;21678;-51
2022/09/23 07:00:17;;;;;;;1.60;0.50;;;;;;;11.78;100.00;99449.03;1751781;80;21077;-51
2022/09/23 07:02:43;;;;;;;0.50;0.50;;;;;;;11.81;100.00;99452.91;1753684;80;22239;-51
2022/09/23 07:05:10;;;;;;;1.45;0.40;;;;;;;11.82;100.00;99446.55;1755915;80;21678;-50
2022/09/23 07:07:38;;;;;;;1.70;0.40;;;;;;;11.85;100.00;99445.48;1756167;80;21733;-49
2022/09/23 07:10:06;;;;;;;1.52;0.30;;;;;;;11.85;100.00;99449.53;1752667;80;21045;-48
2022/09/23 07:12:33;;;;;;;0.30;0.30;;;;;;;11.86;100.00;99442.70;1697603;82;21730;-49
2022/09/23 07:14:59;;;;;;;0.30;0.30;;;;;;;11.89;100.00;99442.54;1754807;80;21839;-48
2022/09/23 07:17:27;;;;;;;1.32;0.40;;;;;;;11.92;100.00;99445.03;1757893;80;21528;-48
2022/09/23 07:19:54;;;;;;;0.37;0.37;;;;;;;11.97;100.00;99440.26;1752478;80;21047;-48
2022/09/23 07:22:21;;;;;;;0.40;0.40;;;;;;;12.02;100.00;99435.92;1753213;79;21089;-49
2022/09/23 07:24:47;;;;;;;0.47;0.47;;;;;;;12.05;100.00;99442.02;1754735;80;21315;-50
2022/09/23 07:27:15;;;;;;;0.40;0.35;;;;;;;12.08;100.00;99435.08;1752435;80;22558;-49
2022/09/23 07:29:42;;;;;;;0.33;0.30;;;;;;;12.12;100.00;99435.30;1749710;80;21081;-50
2022/09/23 07:32:09;;;;;;;0.40;0.40;;;;;;;12.15;100.00;99432.91;1752642;80;21065;-48
2022/09/23 07:34:36;;;;;;;0.30;0.30;;;;;;;12.19;100.00;99429.05;1757091;80;21037;-49
2022/09/23 07:37:03;;;;;;;1.95;0.30;;;;;;;12.24;100.00;99427.44;1764852;80;21624;-50
2022/09/23 07:39:29;;;;;;;0.40;0.30;;;;;;;12.26;100.00;99433.11;1762413;79;22027;-49
2022/09/23 07:41:58;;;;;;;0.30;0.30;;;;;;;12.30;100.00;99433.81;1762741;79;21062;-49
2022/09/23 07:44:25;;;;;;;0.62;0.47;;;;;;;12.28;100.00;99427.63;1761070;79;21674;-48
2022/09/23 07:46:52;;;;;;;2.25;0.60;;;;;;;12.28;100.00;99428.50;1759859;80;21104;-49
2022/09/23 07:49:19;;;;;;;0.60;0.60;;;;;;;12.28;100.00;99426.28;1761610;80;21065;-48
2022/09/23 07:51:45;;;;;;;0.57;0.55;;;;;;;12.27;100.00;99423.19;1760157;80;21705;-48
2022/09/23 07:54:14;;;;;;;0.80;0.80;;;;;;;12.27;100.00;99427.23;1760040;79;21319;-49
2022/09/23 07:56:42;;;;;;;0.53;0.53;;;;;;;12.28;100.00;99418.19;1760581;80;21026;-49
2022/09/23 07:59:14;;;;;;;0.70;0.60;;;;;;;12.30;100.00;99420.31;1758970;79;21065;-47
2022/09/23 08:01:44;;;;;;;0.55;0.55;;;;;;;12.30;100.00;99414.92;1761478;80;21038;-48
2022/09/23 08:04:18;;;;;;;0.68;0.68;;;;;;;12.35;100.00;99416.84;1757920;80;23259;-48
2022/09/23 08:06:51;;;;;;;0.68;0.65;;;;;;;12.40;100.00;99412.05;1759038;80;21068;-48
2022/09/23 08:09:21;;;;;;;0.60;0.60;;;;;;;12.47;100.00;99413.41;1758640;80;21801;-49
2022/09/23 08:11:48;;;;;;;1.42;1.02;;;;;;;12.52;100.00;99405.88;1763155;79;21098;-50
2022/09/23 08:14:16;;;;;;;0.60;0.60;;;;;;;12.51;100.00;99412.24;1765613;79;21039;-49
2022/09/23 08:16:44;;;;;;;0.60;0.60;;;;;;;12.40;100.00;99414.75;1757312;80;21980;-49
2022/09/23 08:19:11;;;;;;;0.45;0.45;;;;;;;12.31;100.00;99413.48;1721599;81;21090;-52
2022/09/23 08:21:39;;;;;;;1.15;0.40;;;;;;;12.28;100.00;99410.09;1761588;80;21036;-52
2022/09/23 08:24:18;;;;;;;0.47;0.47;;;;;;;12.28;100.00;99404.69;1762319;80;21643;-50
2022/09/23 08:26:45;;;;;;;1.72;0.50;;;;;;;12.30;100.00;99408.17;1765049;80;21475;-52
2022/09/23 08:29:13;;;;;;;0.60;0.53;;;;;;;12.23;100.00;99406.33;1761762;80;21829;-51
2022/09/23 08:31:40;;;;;;;2.22;0.50;;;;;;;12.19;100.00;99416.91;1760565;80;22448;-50
2022/09/23 08:34:07;;;;;;;0.50;0.50;;;;;;;12.18;100.00;99416.99;1760371;80;21037;-50
2022/09/23 08:36:34;;;;;;;0.40;0.40;;;;;;;12.19;100.00;99418.26;1760697;80;21061;-51
2022/09/23 08:39:01;;;;;;;0.30;0.30;;;;;;;12.18;100.00;99423.27;1762299;80;21062;-51
2022/09/23 08:41:49;;;;;;;0.30;0.30;;;;;;;12.16;100.00;99419.81;1760927;80;22881;-51
2022/09/23 08:44:21;;;;;;;0.20;0.20;;;;;;;12.19;100.00;99424.13;1756194;80;21057;-51
2022/09/23 08:46:53;;;;;;;0.20;0.20;;;;;;;12.19;100.00;99422.78;1762787;80;21037;-52
2022/09/23 08:49:28;;;;;;;0.20;0.20;;;;;;;12.19;100.00;99418.73;1758992;80;21049;-49
2022/09/23 08:51:55;;;;;;;0.37;0.30;;;;;;;12.18;100.00;99423.73;1760042;80;21076;-51
2022/09/23 08:54:22;;;;;;;0.60;0.40;;;;;;;12.19;100.00;99422.78;1758661;80;22839;-51
2022/09/23 08:56:51;;;;;;;0.50;0.50;;;;;;;12.21;100.00;99422.22;1764772;80;21351;-52
2022/09/23 08:59:31;;;;;;;0.57;0.55;;;;;;;12.23;100.00;99419.83;1762086;80;21088;-50
2022/09/23 09:01:59;;;;;;;0.50;0.50;;;;;;;12.24;100.00;99421.56;1754561;80;21429;-50
2022/09/23 09:04:38;;;;;;;0.80;0.60;;;;;;;12.31;100.00;99413.96;1761990;80;21521;-50
2022/09/23 09:07:13;;;;;;;0.50;0.50;;;;;;;12.42;100.00;99415.02;1762767;80;21897;-51
2022/09/23 09:10:06;;;;;;;0.57;0.50;;;;;;;12.55;100.00;99409.76;1761614;80;21615;-52
2022/09/23 09:12:49;;;;;;;0.70;0.65;;;;;;;12.66;100.00;99409.97;1763393;80;21005;-51
2022/09/23 09:15:27;;;;;;;0.62;0.60;;;;;;;12.75;100.00;99409.88;1759927;80;20982;-48
2022/09/23 09:18:10;;;;;;;0.60;0.60;;;;;;;12.85;100.00;99407.84;1765458;80;21030;-49
2022/09/23 09:20:58;;;;;;;0.70;0.65;;;;;;;12.93;100.00;99414.10;1717812;81;21912;-47
2022/09/23 09:23:55;;;;;;;0.65;0.65;;;;;;;12.99;100.00;99410.16;1756001;79;21041;-47
2022/09/23 09:26:28;;;;;;;0.60;0.60;;;;;;;13.07;100.00;99411.89;1736052;80;21471;-50
2022/09/23 09:29:29;;;;;;;0.50;0.50;;;;;;;13.14;100.00;99416.84;1758755;80;21108;-48
2022/09/23 09:31:56;;;;;;;0.60;0.60;;;;;;;13.15;100.00;99416.36;1758252;79;21109;-50
2022/09/23 09:34:40;;;;;;;0.93;0.60;;;;;;;13.11;100.00;99416.99;1730563;80;21804;-49
2022/09/23 09:37:29;;;;;;;0.88;0.60;;;;;;;13.03;100.00;99417.96;1760999;79;21099;-49
2022/09/23 09:39:55;;;;;;;0.70;0.70;;;;;;;12.99;100.00;99423.19;1764219;79;20971;-49
2022/09/23 09:42:26;;;;;;;2.08;0.60;;;;;;;12.97;100.00;99421.55;1734498;80;21144;-49
2022/09/23 09:45:18;;;;;;;0.80;0.80;;;;;;;12.92;100.00;99419.15;1760503;80;21163;-49
2022/09/23 09:48:02;;;;;;;1.55;1.00;;;;;;;12.88;100.00;99410.84;1762649;80;21847;-50
2022/09/23 09:50:48;;;;;;;0.60;0.60;;;;;;;12.87;100.00;99411.31;1703110;82;21065;-49
2022/09/23 09:53:22;;;;;;;0.40;0.40;;;;;;;12.85;100.00;99418.64;1760566;79;21053;-50
2022/09/23 09:56:07;;;;;;;0.45;0.30;;;;;;;12.72;100.00;99414.98;1763232;80;21100;-49
2022/09/23 09:58:48;;;;;;;0.20;0.20;;;;;;;12.56;100.00;99417.38;1763352;80;21210;-51
2022/09/23 10:01:24;;;;;;;0.30;0.20;;;;;;;12.38;100.00;99409.92;1741930;80;21848;-50
2022/09/23 10:03:56;;;;;;;0.30;0.25;;;;;;;12.23;100.00;99411.73;1761134;79;21076;-49
2022/09/23 10:06:26;;;;;;;0.30;0.30;;;;;;;12.10;100.00;99408.02;1766441;79;21041;-50
2022/09/23 10:09:17;;;;;;;0.30;0.30;;;;;;;12.00;100.00;99412.21;1759492;80;21093;-48
2022/09/23 10:12:14;;;;;;;0.30;0.30;;;;;;;11.94;100.00;99413.45;1766190;80;21333;-48
2022/09/23 10:14:42;;;;;;;0.30;0.30;;;;;;;11.91;100.00;99417.67;1764765;80;21891;-49
2022/09/23 10:17:19;;;;;;;0.50;0.40;;;;;;;11.91;100.00;99418.18;1763954;80;21024;-51
2022/09/23 10:19:59;;;;;;;0.30;0.30;;;;;;;11.90;100.00;99415.09;1764577;80;21078;-50
2022/09/23 10:22:35;;;;;;;0.40;0.37;;;;;;;11.88;100.00;99409.78;1760435;80;21009;-48
2022/09/23 10:25:08;;;;;;;2.92;0.30;;;;;;;11.86;100.00;99417.08;1758040;80;21045;-50
2022/09/23 10:27:36;;;;;;;0.30;0.30;;;;;;;11.88;100.00;99410.26;1761006;80;21762;-49
2022/09/23 10:30:16;;;;;;;0.47;0.30;;;;;;;11.94;100.00;99409.89;1701711;82;21452;-48
2022/09/23 10:32:43;;;;;;;0.30;0.20;;;;;;;11.99;100.00;99409.16;1763508;80;21084;-49
2022/09/23 10:35:23;;;;;;;0.35;0.20;;;;;;;12.07;100.00;99410.91;1760773;80;21084;-49
2022/09/23 10:38:00;;;;;;;0.30;0.30;;;;;;;12.13;100.00;99410.54;1762606;80;21594;-49
2022/09/23 10:47:08;;;;;;;0.57;0.40;;;;;;;12.23;100.00;99404.11;1761091;80;21481;-50
2022/09/23 10:49:55;;;;;;;0.70;0.30;;;;;;;12.25;100.00;99397.64;1766335;80;21368;-49
2022/09/23 10:52:45;;;;;;;0.30;0.30;;;;;;;12.26;100.00;99398.03;1765225;80;21078;-49
2022/09/23 10:55:43;;;;;;;0.20;0.20;;;;;;;12.28;100.00;99396.12;1757676;80;21939;-51
2022/09/23 10:58:21;;;;;;;0.68;0.20;;;;;;;12.30;100.00;99396.03;1759097;80;21093;-48
2022/09/23 11:01:16;;;;;;;0.30;0.30;;;;;;;12.32;100.00;99398.16;1764213;80;21614;-50
2022/09/23 11:04:22;;;;;;;0.30;0.20;;;;;;;12.32;100.00;99397.68;1734967;80;21738;-48
2022/09/23 11:07:12;;;;;;;0.40;0.40;;;;;;;12.36;100.00;99398.34;1767574;80;21097;-51
2022/09/23 11:10:07;;;;;;;0.50;0.50;;;;;;;12.38;100.00;99397.30;1763845;80;21893;-49
2022/09/23 11:12:43;;;;;;;;;;;;;;;12.41;100.00;99400.30;1767690;80;21132;-49
2022/09/23 11:15:50;;;;;;;1.10;0.80;;;;;;;12.42;100.00;99395.27;1758421;79;20215;-50
2022/09/23 11:18:40;;;;;;;0.80;0.70;;;;;;;12.41;100.00;99394.91;1702961;82;21036;-50
2022/09/23 11:21:31;;;;;;;0.80;0.80;;;;;;;12.41;100.00;99393.07;1761239;80;21690;-48
2022/09/23 11:24:32;;;;;;;2.35;0.88;;;;;;;12.43;100.00;99394.30;1724006;82;21927;-49
2022/09/23 11:27:30;;;;;;;0.78;0.78;;;;;;;12.45;100.00;99400.00;1762550;80;21045;-50
2022/09/23 11:30:10;;;;;;;0.70;0.68;;;;;;;12.49;100.00;99406.09;1761473;80;21586;-48
2022/09/23 11:33:04;;;;;;;0.40;0.40;;;;;;;12.52;100.00;99412.63;1763975;80;21076;-49
2022/09/23 11:35:40;;;;;;;0.62;0.50;;;;;;;12.56;100.00;99398.48;1704432;82;21103;-48
2022/09/23 11:38:13;;;;;;;1.25;0.60;;;;;;;12.57;100.00;99403.80;1759624;80;21797;-50
2022/09/23 11:40:41;;;;;;;0.85;0.70;;;;;;;12.60;100.00;99399.53;1762172;80;21483;-49
2022/09/23 11:43:22;;;;;;;3.08;0.50;;;;;;;12.60;100.00;99398.18;1761528;80;21719;-48
2022/09/23 11:46:00;;;;;;;0.40;0.40;;;;;;;12.62;100.00;99396.74;1764367;80;21635;-48
2022/09/23 11:48:41;;;;;;;2.02;0.30;;;;;;;12.60;100.00;99395.95;1764661;80;21053;-50
2022/09/23 11:51:26;;;;;;;2.40;0.20;;;;;;;12.61;100.00;99390.47;1762127;80;22884;-50
2022/09/23 11:54:21;;;;;;;0.28;0.28;;;;;;;12.65;100.00;99392.52;1763656;79;21525;-50
2022/09/23 11:56:53;;;;;;;1.05;0.40;;;;;;;12.72;100.00;99395.20;1738304;80;21495;-49
2022/09/23 11:59:42;;;;;;;1.10;0.40;;;;;;;12.77;100.00;99385.84;1760186;80;22173;-50
2022/09/23 12:02:29;;;;;;;0.40;0.40;;;;;;;12.82;100.00;99392.32;1760958;80;21438;-52
2022/09/23 12:05:14;;;;;;;0.53;0.50;;;;;;;12.82;100.00;99395.02;1769119;80;21808;-50
2022/09/23 12:07:55;;;;;;;0.50;0.50;;;;;;;12.77;100.00;99395.78;1762451;80;21100;-48